sensor_id;sensor_type;location;lat;lon;timestamp;P1;durP1;ratioP1;P2;durP2;ratioP2
13897;SDS011;7019;50.766;4.474;2022-08-01T00:01:12;2.17;;;1.37;;
13897;SDS011;7019;50.766;4.474;2022-08-01T00:03:40;2.10;;;1.20;;
13897;SDS011;7019;50.766;4.474;2022-08-01T00:06:08;4.70;;;1.37;;
13897;SDS011;7019;50.766;4.474;2022-08-01T00:08:35;4.20;;;1.70;;
13897;SDS011;7019;50.766;4.474;2022-08-01T00:11:02;3.90;;;1.27;;
13897;SDS011;7019;50.766;4.474;2022-08-01T00:13:29;2.03;;;1.50;;
13897;SDS011;7019;50.766;4.474;2022-08-01T00:15:56;1.47;;;1.20;;
13897;SDS011;7019;50.766;4.474;2022-08-01T00:18:24;2.10;;;1.50;;
13897;SDS011;7019;50.766;4.474;2022-08-01T00:20:52;4.03;;;1.73;;
13897;SDS011;7019;50.766;4.474;2022-08-01T00:23:19;3.50;;;1.50;;
13897;SDS011;7019;50.766;4.474;2022-08-01T00:25:46;2.73;;;1.67;;
13897;SDS011;7019;50.766;4.474;2022-08-01T00:28:13;2.73;;;1.70;;
13897;SDS011;7019;50.766;4.474;2022-08-01T00:30:41;2.57;;;1.70;;
13897;SDS011;7019;50.766;4.474;2022-08-01T00:33:08;2.30;;;1.40;;
13897;SDS011;7019;50.766;4.474;2022-08-01T00:35:35;2.90;;;1.70;;
13897;SDS011;7019;50.766;4.474;2022-08-01T00:38:03;4.10;;;1.70;;
13897;SDS011;7019;50.766;4.474;2022-08-01T00:40:30;6.30;;;1.83;;
13897;SDS011;7019;50.766;4.474;2022-08-01T00:42:57;4.03;;;1.70;;
13897;SDS011;7019;50.766;4.474;2022-08-01T00:45:24;4.13;;;1.70;;
13897;SDS011;7019;50.766;4.474;2022-08-01T00:47:52;3.40;;;1.70;;
13897;SDS011;7019;50.766;4.474;2022-08-01T00:50:19;2.87;;;1.70;;
13897;SDS011;7019;50.766;4.474;2022-08-01T00:52:46;2.80;;;2.07;;
13897;SDS011;7019;50.766;4.474;2022-08-01T00:55:15;5.73;;;2.93;;
13897;SDS011;7019;50.766;4.474;2022-08-01T00:57:44;3.00;;;2.20;;
13897;SDS011;7019;50.766;4.474;2022-08-01T01:00:12;6.43;;;2.37;;
13897;SDS011;7019;50.766;4.474;2022-08-01T01:02:40;3.30;;;2.10;;
13897;SDS011;7019;50.766;4.474;2022-08-01T01:05:07;3.47;;;2.10;;
13897;SDS011;7019;50.766;4.474;2022-08-01T01:07:36;3.37;;;2.23;;
13897;SDS011;7019;50.766;4.474;2022-08-01T01:10:12;4.03;;;2.03;;
13897;SDS011;7019;50.766;4.474;2022-08-01T01:12:47;2.90;;;2.30;;
13897;SDS011;7019;50.766;4.474;2022-08-01T01:15:20;5.87;;;2.27;;
13897;SDS011;7019;50.766;4.474;2022-08-01T01:17:52;3.30;;;2.00;;
13897;SDS011;7019;50.766;4.474;2022-08-01T01:20:25;4.83;;;2.73;;
13897;SDS011;7019;50.766;4.474;2022-08-01T01:23:10;4.77;;;2.30;;
13897;SDS011;7019;50.766;4.474;2022-08-01T01:25:53;3.23;;;1.93;;
13897;SDS011;7019;50.766;4.474;2022-08-01T01:28:34;3.47;;;2.20;;
13897;SDS011;7019;50.766;4.474;2022-08-01T01:31:11;4.90;;;2.27;;
13897;SDS011;7019;50.766;4.474;2022-08-01T01:33:39;3.23;;;2.10;;
13897;SDS011;7019;50.766;4.474;2022-08-01T01:36:08;5.67;;;2.23;;
13897;SDS011;7019;50.766;4.474;2022-08-01T01:38:39;5.20;;;2.20;;
13897;SDS011;7019;50.766;4.474;2022-08-01T01:41:09;4.67;;;2.33;;
13897;SDS011;7019;50.766;4.474;2022-08-01T01:43:37;4.93;;;2.13;;
13897;SDS011;7019;50.766;4.474;2022-08-01T01:46:06;3.90;;;2.03;;
13897;SDS011;7019;50.766;4.474;2022-08-01T01:48:36;5.27;;;2.10;;
13897;SDS011;7019;50.766;4.474;2022-08-01T01:51:06;2.47;;;1.97;;
13897;SDS011;7019;50.766;4.474;2022-08-01T01:53:34;5.07;;;2.20;;
13897;SDS011;7019;50.766;4.474;2022-08-01T01:56:02;6.90;;;2.30;;
13897;SDS011;7019;50.766;4.474;2022-08-01T01:58:30;4.13;;;2.60;;
13897;SDS011;7019;50.766;4.474;2022-08-01T02:01:00;3.67;;;2.17;;
13897;SDS011;7019;50.766;4.474;2022-08-01T02:03:28;4.03;;;2.13;;
13897;SDS011;7019;50.766;4.474;2022-08-01T02:05:58;6.33;;;1.97;;
13897;SDS011;7019;50.766;4.474;2022-08-01T02:08:27;4.87;;;2.13;;
13897;SDS011;7019;50.766;4.474;2022-08-01T02:10:56;2.57;;;2.13;;
13897;SDS011;7019;50.766;4.474;2022-08-01T02:13:42;5.30;;;3.00;;
13897;SDS011;7019;50.766;4.474;2022-08-01T02:16:10;7.83;;;4.37;;
13897;SDS011;7019;50.766;4.474;2022-08-01T02:18:39;8.57;;;4.57;;
13897;SDS011;7019;50.766;4.474;2022-08-01T02:21:09;11.80;;;6.23;;
13897;SDS011;7019;50.766;4.474;2022-08-01T02:23:40;7.47;;;5.50;;
13897;SDS011;7019;50.766;4.474;2022-08-01T02:26:09;8.63;;;5.80;;
13897;SDS011;7019;50.766;4.474;2022-08-01T02:28:41;9.27;;;5.50;;
13897;SDS011;7019;50.766;4.474;2022-08-01T02:31:14;6.20;;;5.20;;
13897;SDS011;7019;50.766;4.474;2022-08-01T02:33:45;7.90;;;5.50;;
13897;SDS011;7019;50.766;4.474;2022-08-01T02:36:19;7.87;;;6.03;;
13897;SDS011;7019;50.766;4.474;2022-08-01T02:38:47;10.33;;;5.50;;
13897;SDS011;7019;50.766;4.474;2022-08-01T02:41:16;7.70;;;5.47;;
13897;SDS011;7019;50.766;4.474;2022-08-01T02:43:49;8.50;;;5.83;;
13897;SDS011;7019;50.766;4.474;2022-08-01T02:46:22;10.13;;;5.33;;
13897;SDS011;7019;50.766;4.474;2022-08-01T02:48:52;9.13;;;4.57;;
13897;SDS011;7019;50.766;4.474;2022-08-01T02:51:23;7.07;;;4.70;;
13897;SDS011;7019;50.766;4.474;2022-08-01T02:53:52;7.40;;;4.13;;
13897;SDS011;7019;50.766;4.474;2022-08-01T02:56:21;8.77;;;4.50;;
13897;SDS011;7019;50.766;4.474;2022-08-01T02:58:59;8.57;;;4.40;;
13897;SDS011;7019;50.766;4.474;2022-08-01T03:01:31;6.80;;;3.67;;
13897;SDS011;7019;50.766;4.474;2022-08-01T03:04:01;5.73;;;3.90;;
13897;SDS011;7019;50.766;4.474;2022-08-01T03:06:31;7.00;;;4.33;;
13897;SDS011;7019;50.766;4.474;2022-08-01T03:09:00;6.37;;;3.83;;
13897;SDS011;7019;50.766;4.474;2022-08-01T03:11:29;5.80;;;3.50;;
13897;SDS011;7019;50.766;4.474;2022-08-01T03:13:58;6.83;;;3.83;;
13897;SDS011;7019;50.766;4.474;2022-08-01T03:16:27;9.60;;;4.70;;
13897;SDS011;7019;50.766;4.474;2022-08-01T03:18:56;10.00;;;3.73;;
13897;SDS011;7019;50.766;4.474;2022-08-01T03:21:24;8.83;;;3.70;;
13897;SDS011;7019;50.766;4.474;2022-08-01T03:23:55;9.10;;;4.60;;
13897;SDS011;7019;50.766;4.474;2022-08-01T03:26:26;7.03;;;3.90;;
13897;SDS011;7019;50.766;4.474;2022-08-01T03:28:57;8.03;;;4.27;;
13897;SDS011;7019;50.766;4.474;2022-08-01T03:31:28;4.10;;;3.47;;
13897;SDS011;7019;50.766;4.474;2022-08-01T03:33:56;9.43;;;5.03;;
13897;SDS011;7019;50.766;4.474;2022-08-01T03:36:24;8.67;;;4.37;;
13897;SDS011;7019;50.766;4.474;2022-08-01T03:38:57;7.87;;;5.10;;
13897;SDS011;7019;50.766;4.474;2022-08-01T03:41:30;10.50;;;5.73;;
13897;SDS011;7019;50.766;4.474;2022-08-01T03:44:03;9.83;;;5.40;;
13897;SDS011;7019;50.766;4.474;2022-08-01T03:46:39;9.87;;;5.70;;
13897;SDS011;7019;50.766;4.474;2022-08-01T03:49:10;9.03;;;5.30;;
13897;SDS011;7019;50.766;4.474;2022-08-01T03:51:40;10.57;;;5.80;;
13897;SDS011;7019;50.766;4.474;2022-08-01T03:54:11;8.80;;;5.63;;
13897;SDS011;7019;50.766;4.474;2022-08-01T03:56:40;11.10;;;6.37;;
13897;SDS011;7019;50.766;4.474;2022-08-01T03:59:08;13.37;;;6.77;;
13897;SDS011;7019;50.766;4.474;2022-08-01T04:01:36;18.37;;;7.50;;
13897;SDS011;7019;50.766;4.474;2022-08-01T04:04:04;11.50;;;6.43;;
13897;SDS011;7019;50.766;4.474;2022-08-01T04:06:31;16.37;;;6.67;;
13897;SDS011;7019;50.766;4.474;2022-08-01T04:08:58;10.37;;;6.13;;
13897;SDS011;7019;50.766;4.474;2022-08-01T04:11:27;11.53;;;6.57;;
13897;SDS011;7019;50.766;4.474;2022-08-01T04:13:54;11.80;;;6.20;;
13897;SDS011;7019;50.766;4.474;2022-08-01T04:16:22;11.23;;;7.47;;
13897;SDS011;7019;50.766;4.474;2022-08-01T04:18:49;10.13;;;6.80;;
13897;SDS011;7019;50.766;4.474;2022-08-01T04:21:17;16.07;;;8.77;;
13897;SDS011;7019;50.766;4.474;2022-08-01T04:23:47;10.27;;;6.10;;
13897;SDS011;7019;50.766;4.474;2022-08-01T04:26:17;12.20;;;6.73;;
13897;SDS011;7019;50.766;4.474;2022-08-01T04:28:47;12.73;;;6.70;;
13897;SDS011;7019;50.766;4.474;2022-08-01T04:31:16;16.00;;;7.83;;
13897;SDS011;7019;50.766;4.474;2022-08-01T04:33:49;12.53;;;6.87;;
13897;SDS011;7019;50.766;4.474;2022-08-01T04:36:19;17.03;;;8.33;;
13897;SDS011;7019;50.766;4.474;2022-08-01T04:38:50;12.93;;;7.20;;
13897;SDS011;7019;50.766;4.474;2022-08-01T04:41:22;9.83;;;6.43;;
13897;SDS011;7019;50.766;4.474;2022-08-01T04:43:51;15.37;;;7.77;;
13897;SDS011;7019;50.766;4.474;2022-08-01T04:46:19;15.00;;;8.53;;
13897;SDS011;7019;50.766;4.474;2022-08-01T04:48:48;10.70;;;7.47;;
13897;SDS011;7019;50.766;4.474;2022-08-01T04:51:16;15.50;;;7.50;;
13897;SDS011;7019;50.766;4.474;2022-08-01T04:53:47;13.17;;;7.50;;
13897;SDS011;7019;50.766;4.474;2022-08-01T04:56:15;10.07;;;6.87;;
13897;SDS011;7019;50.766;4.474;2022-08-01T04:58:43;9.77;;;7.23;;
13897;SDS011;7019;50.766;4.474;2022-08-01T05:01:12;12.23;;;8.13;;
13897;SDS011;7019;50.766;4.474;2022-08-01T05:03:39;11.30;;;8.33;;
13897;SDS011;7019;50.766;4.474;2022-08-01T05:06:06;15.00;;;9.30;;
13897;SDS011;7019;50.766;4.474;2022-08-01T05:08:33;11.07;;;8.07;;
13897;SDS011;7019;50.766;4.474;2022-08-01T05:11:01;10.43;;;7.17;;
13897;SDS011;7019;50.766;4.474;2022-08-01T05:13:28;10.67;;;7.00;;
13897;SDS011;7019;50.766;4.474;2022-08-01T05:15:55;9.17;;;6.13;;
13897;SDS011;7019;50.766;4.474;2022-08-01T05:18:23;10.13;;;6.67;;
13897;SDS011;7019;50.766;4.474;2022-08-01T05:20:51;8.70;;;7.33;;
13897;SDS011;7019;50.766;4.474;2022-08-01T05:23:18;11.70;;;7.80;;
13897;SDS011;7019;50.766;4.474;2022-08-01T05:25:45;9.50;;;7.60;;
13897;SDS011;7019;50.766;4.474;2022-08-01T05:28:14;8.10;;;6.73;;
13897;SDS011;7019;50.766;4.474;2022-08-01T05:30:41;11.40;;;8.23;;
13897;SDS011;7019;50.766;4.474;2022-08-01T05:33:08;11.70;;;6.50;;
13897;SDS011;7019;50.766;4.474;2022-08-01T05:35:37;8.53;;;6.27;;
13897;SDS011;7019;50.766;4.474;2022-08-01T05:38:04;9.27;;;6.30;;
13897;SDS011;7019;50.766;4.474;2022-08-01T05:40:31;12.00;;;8.10;;
13897;SDS011;7019;50.766;4.474;2022-08-01T05:42:58;10.27;;;7.70;;
13897;SDS011;7019;50.766;4.474;2022-08-01T05:45:25;8.50;;;6.97;;
13897;SDS011;7019;50.766;4.474;2022-08-01T05:47:52;11.97;;;7.80;;
13897;SDS011;7019;50.766;4.474;2022-08-01T05:50:19;13.30;;;8.50;;
13897;SDS011;7019;50.766;4.474;2022-08-01T05:52:48;13.07;;;8.40;;
13897;SDS011;7019;50.766;4.474;2022-08-01T05:55:15;8.43;;;6.13;;
13897;SDS011;7019;50.766;4.474;2022-08-01T05:57:42;10.10;;;6.87;;
13897;SDS011;7019;50.766;4.474;2022-08-01T06:00:09;13.53;;;10.23;;
13897;SDS011;7019;50.766;4.474;2022-08-01T06:02:39;11.47;;;7.60;;
13897;SDS011;7019;50.766;4.474;2022-08-01T06:05:08;17.10;;;8.50;;
13897;SDS011;7019;50.766;4.474;2022-08-01T06:07:36;10.50;;;6.00;;
13897;SDS011;7019;50.766;4.474;2022-08-01T06:10:07;12.93;;;7.47;;
13897;SDS011;7019;50.766;4.474;2022-08-01T06:12:35;12.80;;;9.90;;
13897;SDS011;7019;50.766;4.474;2022-08-01T06:15:02;17.00;;;10.47;;
13897;SDS011;7019;50.766;4.474;2022-08-01T06:17:30;12.23;;;9.50;;
13897;SDS011;7019;50.766;4.474;2022-08-01T06:19:57;14.10;;;8.17;;
13897;SDS011;7019;50.766;4.474;2022-08-01T06:22:24;13.67;;;9.43;;
13897;SDS011;7019;50.766;4.474;2022-08-01T06:24:52;12.83;;;8.13;;
13897;SDS011;7019;50.766;4.474;2022-08-01T06:27:20;10.37;;;8.20;;
13897;SDS011;7019;50.766;4.474;2022-08-01T06:29:49;12.33;;;9.07;;
13897;SDS011;7019;50.766;4.474;2022-08-01T06:32:18;12.60;;;8.33;;
13897;SDS011;7019;50.766;4.474;2022-08-01T06:34:45;15.37;;;8.17;;
13897;SDS011;7019;50.766;4.474;2022-08-01T06:37:12;13.90;;;8.60;;
13897;SDS011;7019;50.766;4.474;2022-08-01T06:39:39;10.63;;;7.27;;
13897;SDS011;7019;50.766;4.474;2022-08-01T06:42:06;14.43;;;8.60;;
13897;SDS011;7019;50.766;4.474;2022-08-01T06:44:35;11.67;;;8.70;;
13897;SDS011;7019;50.766;4.474;2022-08-01T06:47:03;11.07;;;8.50;;
13897;SDS011;7019;50.766;4.474;2022-08-01T06:49:30;10.67;;;7.63;;
13897;SDS011;7019;50.766;4.474;2022-08-01T06:51:57;8.70;;;7.23;;
13897;SDS011;7019;50.766;4.474;2022-08-01T06:54:24;10.30;;;7.93;;
13897;SDS011;7019;50.766;4.474;2022-08-01T06:56:51;9.30;;;6.83;;
13897;SDS011;7019;50.766;4.474;2022-08-01T06:59:18;9.67;;;6.87;;
13897;SDS011;7019;50.766;4.474;2022-08-01T07:01:46;10.40;;;7.33;;
13897;SDS011;7019;50.766;4.474;2022-08-01T07:04:13;9.27;;;5.90;;
13897;SDS011;7019;50.766;4.474;2022-08-01T07:06:40;5.83;;;5.20;;
13897;SDS011;7019;50.766;4.474;2022-08-01T07:09:07;6.93;;;4.97;;
13897;SDS011;7019;50.766;4.474;2022-08-01T07:11:34;8.77;;;5.70;;
13897;SDS011;7019;50.766;4.474;2022-08-01T07:14:01;9.33;;;6.47;;
13897;SDS011;7019;50.766;4.474;2022-08-01T07:16:28;8.37;;;7.00;;
13897;SDS011;7019;50.766;4.474;2022-08-01T07:18:57;7.20;;;6.00;;
13897;SDS011;7019;50.766;4.474;2022-08-01T07:21:24;8.57;;;6.67;;
13897;SDS011;7019;50.766;4.474;2022-08-01T07:23:51;9.77;;;6.17;;
13897;SDS011;7019;50.766;4.474;2022-08-01T07:26:19;8.73;;;6.43;;
13897;SDS011;7019;50.766;4.474;2022-08-01T07:28:46;6.73;;;6.03;;
13897;SDS011;7019;50.766;4.474;2022-08-01T07:31:13;8.43;;;6.17;;
13897;SDS011;7019;50.766;4.474;2022-08-01T07:33:41;7.17;;;5.83;;
13897;SDS011;7019;50.766;4.474;2022-08-01T07:36:09;11.10;;;7.00;;
13897;SDS011;7019;50.766;4.474;2022-08-01T07:38:37;7.90;;;5.60;;
13897;SDS011;7019;50.766;4.474;2022-08-01T07:41:04;7.53;;;5.60;;
13897;SDS011;7019;50.766;4.474;2022-08-01T07:43:31;6.17;;;5.57;;
13897;SDS011;7019;50.766;4.474;2022-08-01T07:46:00;7.30;;;5.83;;
13897;SDS011;7019;50.766;4.474;2022-08-01T07:48:28;5.63;;;4.50;;
13897;SDS011;7019;50.766;4.474;2022-08-01T07:50:55;5.20;;;4.70;;
13897;SDS011;7019;50.766;4.474;2022-08-01T07:53:23;5.57;;;4.83;;
13897;SDS011;7019;50.766;4.474;2022-08-01T07:55:50;6.83;;;5.53;;
13897;SDS011;7019;50.766;4.474;2022-08-01T07:58:18;5.23;;;4.73;;
13897;SDS011;7019;50.766;4.474;2022-08-01T08:00:45;5.80;;;4.63;;
13897;SDS011;7019;50.766;4.474;2022-08-01T08:03:12;4.47;;;3.83;;
13897;SDS011;7019;50.766;4.474;2022-08-01T08:05:39;4.20;;;3.80;;
13897;SDS011;7019;50.766;4.474;2022-08-01T08:08:07;5.33;;;4.10;;
13897;SDS011;7019;50.766;4.474;2022-08-01T08:10:37;4.73;;;3.83;;
13897;SDS011;7019;50.766;4.474;2022-08-01T08:13:04;5.30;;;4.33;;
13897;SDS011;7019;50.766;4.474;2022-08-01T08:15:31;8.10;;;4.33;;
13897;SDS011;7019;50.766;4.474;2022-08-01T08:17:59;3.57;;;3.07;;
13897;SDS011;7019;50.766;4.474;2022-08-01T08:20:26;4.30;;;3.83;;
13897;SDS011;7019;50.766;4.474;2022-08-01T08:22:54;4.23;;;3.60;;
13897;SDS011;7019;50.766;4.474;2022-08-01T08:25:22;4.77;;;3.83;;
13897;SDS011;7019;50.766;4.474;2022-08-01T08:27:51;4.53;;;3.43;;
13897;SDS011;7019;50.766;4.474;2022-08-01T08:30:19;5.93;;;4.17;;
13897;SDS011;7019;50.766;4.474;2022-08-01T08:32:46;7.73;;;4.27;;
13897;SDS011;7019;50.766;4.474;2022-08-01T08:35:13;5.33;;;4.40;;
13897;SDS011;7019;50.766;4.474;2022-08-01T08:37:40;3.80;;;3.38;;
13897;SDS011;7019;50.766;4.474;2022-08-01T08:40:08;3.97;;;3.58;;
13897;SDS011;7019;50.766;4.474;2022-08-01T08:42:36;4.35;;;3.90;;
13897;SDS011;7019;50.766;4.474;2022-08-01T08:45:09;4.47;;;4.07;;
13897;SDS011;7019;50.766;4.474;2022-08-01T08:47:37;4.35;;;3.92;;
13897;SDS011;7019;50.766;4.474;2022-08-01T08:50:06;4.87;;;3.20;;
13897;SDS011;7019;50.766;4.474;2022-08-01T08:52:33;3.85;;;2.60;;
13897;SDS011;7019;50.766;4.474;2022-08-01T08:55:04;3.25;;;2.67;;
13897;SDS011;7019;50.766;4.474;2022-08-01T08:57:33;3.53;;;3.22;;
13897;SDS011;7019;50.766;4.474;2022-08-01T09:00:01;4.45;;;3.30;;
13897;SDS011;7019;50.766;4.474;2022-08-01T09:02:30;4.18;;;2.80;;
13897;SDS011;7019;50.766;4.474;2022-08-01T09:04:57;4.53;;;2.58;;
13897;SDS011;7019;50.766;4.474;2022-08-01T09:07:24;2.70;;;2.47;;
13897;SDS011;7019;50.766;4.474;2022-08-01T09:09:51;3.53;;;2.90;;
13897;SDS011;7019;50.766;4.474;2022-08-01T09:12:18;3.70;;;3.10;;
13897;SDS011;7019;50.766;4.474;2022-08-01T09:14:47;3.97;;;2.97;;
13897;SDS011;7019;50.766;4.474;2022-08-01T09:17:18;3.53;;;3.10;;
13897;SDS011;7019;50.766;4.474;2022-08-01T09:19:48;3.63;;;3.22;;
13897;SDS011;7019;50.766;4.474;2022-08-01T09:22:17;3.20;;;2.70;;
13897;SDS011;7019;50.766;4.474;2022-08-01T09:24:57;4.18;;;2.85;;
13897;SDS011;7019;50.766;4.474;2022-08-01T09:27:26;2.55;;;2.20;;
13897;SDS011;7019;50.766;4.474;2022-08-01T09:29:54;2.33;;;2.15;;
13897;SDS011;7019;50.766;4.474;2022-08-01T09:32:34;2.15;;;2.05;;
13897;SDS011;7019;50.766;4.474;2022-08-01T09:35:21;2.50;;;2.28;;
13897;SDS011;7019;50.766;4.474;2022-08-01T09:37:49;3.15;;;2.20;;
13897;SDS011;7019;50.766;4.474;2022-08-01T09:40:17;1.75;;;1.65;;
13897;SDS011;7019;50.766;4.474;2022-08-01T09:42:44;2.17;;;1.70;;
13897;SDS011;7019;50.766;4.474;2022-08-01T09:45:31;3.13;;;1.90;;
13897;SDS011;7019;50.766;4.474;2022-08-01T09:47:59;2.95;;;1.70;;
13897;SDS011;7019;50.766;4.474;2022-08-01T09:50:39;2.45;;;1.77;;
13897;SDS011;7019;50.766;4.474;2022-08-01T09:53:07;2.85;;;1.73;;
13897;SDS011;7019;50.766;4.474;2022-08-01T09:55:34;1.83;;;1.70;;
13897;SDS011;7019;50.766;4.474;2022-08-01T09:58:03;1.85;;;1.70;;
13897;SDS011;7019;50.766;4.474;2022-08-01T10:00:31;2.38;;;1.63;;
13897;SDS011;7019;50.766;4.474;2022-08-01T10:02:58;3.65;;;1.38;;
13897;SDS011;7019;50.766;4.474;2022-08-01T10:05:30;2.17;;;1.25;;
13897;SDS011;7019;50.766;4.474;2022-08-01T10:07:59;2.60;;;1.20;;
13897;SDS011;7019;50.766;4.474;2022-08-01T10:10:28;0.90;;;0.80;;
13897;SDS011;7019;50.766;4.474;2022-08-01T10:12:56;1.55;;;1.08;;
13897;SDS011;7019;50.766;4.474;2022-08-01T10:15:25;1.10;;;1.00;;
13897;SDS011;7019;50.766;4.474;2022-08-01T10:17:54;0.80;;;0.73;;
13897;SDS011;7019;50.766;4.474;2022-08-01T10:20:23;1.45;;;1.25;;
13897;SDS011;7019;50.766;4.474;2022-08-01T10:22:51;2.15;;;1.38;;
13897;SDS011;7019;50.766;4.474;2022-08-01T10:25:22;1.50;;;0.95;;
13897;SDS011;7019;50.766;4.474;2022-08-01T10:27:52;2.75;;;1.00;;
13897;SDS011;7019;50.766;4.474;2022-08-01T10:30:20;1.70;;;1.30;;
13897;SDS011;7019;50.766;4.474;2022-08-01T10:32:48;1.38;;;1.25;;
13897;SDS011;7019;50.766;4.474;2022-08-01T10:35:17;2.38;;;1.17;;
13897;SDS011;7019;50.766;4.474;2022-08-01T10:37:44;1.55;;;1.00;;
13897;SDS011;7019;50.766;4.474;2022-08-01T10:40:12;4.03;;;1.40;;
13897;SDS011;7019;50.766;4.474;2022-08-01T10:42:42;2.53;;;1.50;;
13897;SDS011;7019;50.766;4.474;2022-08-01T10:45:11;1.77;;;1.33;;
13897;SDS011;7019;50.766;4.474;2022-08-01T10:47:42;1.20;;;1.10;;
13897;SDS011;7019;50.766;4.474;2022-08-01T10:50:16;2.08;;;1.30;;
13897;SDS011;7019;50.766;4.474;2022-08-01T10:53:04;2.45;;;1.17;;
13897;SDS011;7019;50.766;4.474;2022-08-01T10:55:44;1.30;;;1.20;;
13897;SDS011;7019;50.766;4.474;2022-08-01T10:58:14;2.35;;;1.20;;
13897;SDS011;7019;50.766;4.474;2022-08-01T11:00:47;1.30;;;1.20;;
13897;SDS011;7019;50.766;4.474;2022-08-01T11:03:14;1.80;;;1.13;;
13897;SDS011;7019;50.766;4.474;2022-08-01T11:05:41;1.48;;;1.30;;
13897;SDS011;7019;50.766;4.474;2022-08-01T11:08:12;2.05;;;1.17;;
13897;SDS011;7019;50.766;4.474;2022-08-01T11:10:48;3.47;;;1.25;;
13897;SDS011;7019;50.766;4.474;2022-08-01T11:16:27;2.03;;;1.50;;
13897;SDS011;7019;50.766;4.474;2022-08-01T11:18:55;4.25;;;1.42;;
13897;SDS011;7019;50.766;4.474;2022-08-01T11:21:25;1.67;;;1.13;;
13897;SDS011;7019;50.766;4.474;2022-08-01T11:27:27;2.03;;;1.23;;
13897;SDS011;7019;50.766;4.474;2022-08-01T11:33:00;1.95;;;1.17;;
13897;SDS011;7019;50.766;4.474;2022-08-01T11:35:27;3.33;;;1.23;;
13897;SDS011;7019;50.766;4.474;2022-08-01T11:37:54;1.40;;;1.00;;
13897;SDS011;7019;50.766;4.474;2022-08-01T11:40:22;2.75;;;1.30;;
13897;SDS011;7019;50.766;4.474;2022-08-01T11:42:51;1.10;;;1.00;;
13897;SDS011;7019;50.766;4.474;2022-08-01T11:45:47;3.10;;;1.10;;
13897;SDS011;7019;50.766;4.474;2022-08-01T11:48:19;1.35;;;0.73;;
13897;SDS011;7019;50.766;4.474;2022-08-01T11:50:47;1.35;;;0.90;;
13897;SDS011;7019;50.766;4.474;2022-08-01T11:53:16;0.75;;;0.70;;
13897;SDS011;7019;50.766;4.474;2022-08-01T11:55:45;1.50;;;0.63;;
13897;SDS011;7019;50.766;4.474;2022-08-01T11:58:14;1.15;;;0.80;;
13897;SDS011;7019;50.766;4.474;2022-08-01T12:00:49;0.90;;;0.60;;
13897;SDS011;7019;50.766;4.474;2022-08-01T12:03:24;1.02;;;0.70;;
13897;SDS011;7019;50.766;4.474;2022-08-01T12:05:52;1.15;;;0.82;;
13897;SDS011;7019;50.766;4.474;2022-08-01T12:08:26;7.07;;;1.85;;
13897;SDS011;7019;50.766;4.474;2022-08-01T12:10:54;0.90;;;0.90;;
13897;SDS011;7019;50.766;4.474;2022-08-01T12:13:21;1.52;;;1.10;;
13897;SDS011;7019;50.766;4.474;2022-08-01T12:15:48;2.95;;;1.00;;
13897;SDS011;7019;50.766;4.474;2022-08-01T12:18:16;2.15;;;1.20;;
13897;SDS011;7019;50.766;4.474;2022-08-01T12:20:45;2.25;;;1.15;;
13897;SDS011;7019;50.766;4.474;2022-08-01T12:23:13;2.15;;;0.98;;
13897;SDS011;7019;50.766;4.474;2022-08-01T12:25:42;6.47;;;0.90;;
13897;SDS011;7019;50.766;4.474;2022-08-01T12:28:10;3.83;;;0.82;;
13897;SDS011;7019;50.766;4.474;2022-08-01T12:30:39;1.95;;;0.60;;
13897;SDS011;7019;50.766;4.474;2022-08-01T12:33:07;2.40;;;0.57;;
13897;SDS011;7019;50.766;4.474;2022-08-01T12:35:36;2.00;;;0.70;;
13897;SDS011;7019;50.766;4.474;2022-08-01T12:38:06;0.80;;;0.50;;
13897;SDS011;7019;50.766;4.474;2022-08-01T12:40:40;1.95;;;0.63;;
13897;SDS011;7019;50.766;4.474;2022-08-01T12:43:08;1.65;;;0.75;;
13897;SDS011;7019;50.766;4.474;2022-08-01T12:45:36;0.75;;;0.50;;
13897;SDS011;7019;50.766;4.474;2022-08-01T12:48:06;1.42;;;0.65;;
13897;SDS011;7019;50.766;4.474;2022-08-01T12:50:36;1.00;;;0.70;;
13897;SDS011;7019;50.766;4.474;2022-08-01T12:53:07;1.30;;;0.60;;
13897;SDS011;7019;50.766;4.474;2022-08-01T12:55:43;2.03;;;0.50;;
13897;SDS011;7019;50.766;4.474;2022-08-01T12:58:11;1.13;;;0.60;;
13897;SDS011;7019;50.766;4.474;2022-08-01T13:00:40;2.40;;;0.57;;
13897;SDS011;7019;50.766;4.474;2022-08-01T13:03:09;1.48;;;0.50;;
13897;SDS011;7019;50.766;4.474;2022-08-01T13:05:43;1.17;;;0.60;;
13897;SDS011;7019;50.766;4.474;2022-08-01T13:08:13;1.88;;;0.60;;
13897;SDS011;7019;50.766;4.474;2022-08-01T13:10:41;0.60;;;0.60;;
13897;SDS011;7019;50.766;4.474;2022-08-01T13:13:09;0.88;;;0.80;;
13897;SDS011;7019;50.766;4.474;2022-08-01T13:15:37;2.30;;;0.50;;
13897;SDS011;7019;50.766;4.474;2022-08-01T13:20:49;1.35;;;0.80;;
13897;SDS011;7019;50.766;4.474;2022-08-01T13:23:18;2.47;;;0.70;;
13897;SDS011;7019;50.766;4.474;2022-08-01T13:25:46;1.17;;;0.77;;
13897;SDS011;7019;50.766;4.474;2022-08-01T13:28:19;1.88;;;0.60;;
13897;SDS011;7019;50.766;4.474;2022-08-01T13:30:53;3.22;;;0.80;;
13897;SDS011;7019;50.766;4.474;2022-08-01T13:33:22;1.33;;;0.60;;
13897;SDS011;7019;50.766;4.474;2022-08-01T13:35:50;3.05;;;0.82;;
13897;SDS011;7019;50.766;4.474;2022-08-01T13:38:19;0.75;;;0.52;;
13897;SDS011;7019;50.766;4.474;2022-08-01T13:41:08;0.90;;;0.73;;
13897;SDS011;7019;50.766;4.474;2022-08-01T13:43:35;1.30;;;0.70;;
13897;SDS011;7019;50.766;4.474;2022-08-01T13:46:02;1.05;;;0.60;;
13897;SDS011;7019;50.766;4.474;2022-08-01T13:48:30;1.73;;;0.70;;
13897;SDS011;7019;50.766;4.474;2022-08-01T13:50:58;1.77;;;0.77;;
13897;SDS011;7019;50.766;4.474;2022-08-01T13:53:26;5.90;;;1.10;;
13897;SDS011;7019;50.766;4.474;2022-08-01T13:55:54;7.55;;;1.30;;
13897;SDS011;7019;50.766;4.474;2022-08-01T13:58:21;1.70;;;0.75;;
13897;SDS011;7019;50.766;4.474;2022-08-01T14:00:48;2.28;;;0.88;;
13897;SDS011;7019;50.766;4.474;2022-08-01T14:03:15;1.63;;;0.70;;
13897;SDS011;7019;50.766;4.474;2022-08-01T14:05:42;2.35;;;1.00;;
13897;SDS011;7019;50.766;4.474;2022-08-01T14:08:10;1.35;;;0.60;;
13897;SDS011;7019;50.766;4.474;2022-08-01T14:10:38;3.42;;;0.88;;
13897;SDS011;7019;50.766;4.474;2022-08-01T14:13:05;5.93;;;0.70;;
13897;SDS011;7019;50.766;4.474;2022-08-01T14:15:32;2.25;;;0.68;;
13897;SDS011;7019;50.766;4.474;2022-08-01T14:17:59;2.15;;;0.65;;
13897;SDS011;7019;50.766;4.474;2022-08-01T14:20:27;2.13;;;0.73;;
13897;SDS011;7019;50.766;4.474;2022-08-01T14:22:54;2.78;;;0.85;;
13897;SDS011;7019;50.766;4.474;2022-08-01T14:25:21;3.08;;;1.02;;
13897;SDS011;7019;50.766;4.474;2022-08-01T14:27:50;5.47;;;1.25;;
13897;SDS011;7019;50.766;4.474;2022-08-01T14:30:17;5.90;;;1.00;;
13897;SDS011;7019;50.766;4.474;2022-08-01T14:32:44;2.05;;;0.60;;
13897;SDS011;7019;50.766;4.474;2022-08-01T14:35:11;3.03;;;0.55;;
13897;SDS011;7019;50.766;4.474;2022-08-01T14:37:38;3.70;;;0.75;;
13897;SDS011;7019;50.766;4.474;2022-08-01T14:40:06;4.30;;;1.10;;
13897;SDS011;7019;50.766;4.474;2022-08-01T14:42:34;0.85;;;0.63;;
13897;SDS011;7019;50.766;4.474;2022-08-01T14:45:03;5.07;;;1.00;;
13897;SDS011;7019;50.766;4.474;2022-08-01T14:47:34;3.22;;;0.80;;
13897;SDS011;7019;50.766;4.474;2022-08-01T14:50:02;1.02;;;0.70;;
13897;SDS011;7019;50.766;4.474;2022-08-01T14:52:31;1.67;;;0.57;;
13897;SDS011;7019;50.766;4.474;2022-08-01T14:54:58;1.27;;;0.65;;
13897;SDS011;7019;50.766;4.474;2022-08-01T14:57:26;2.92;;;0.80;;
13897;SDS011;7019;50.766;4.474;2022-08-01T14:59:53;0.95;;;0.60;;
13897;SDS011;7019;50.766;4.474;2022-08-01T15:02:21;1.35;;;0.70;;
13897;SDS011;7019;50.766;4.474;2022-08-01T15:04:49;1.33;;;1.17;;
13897;SDS011;7019;50.766;4.474;2022-08-01T15:07:16;1.42;;;1.02;;
13897;SDS011;7019;50.766;4.474;2022-08-01T15:09:44;1.67;;;0.82;;
13897;SDS011;7019;50.766;4.474;2022-08-01T15:12:11;1.90;;;0.70;;
13897;SDS011;7019;50.766;4.474;2022-08-01T15:14:39;1.33;;;0.70;;
13897;SDS011;7019;50.766;4.474;2022-08-01T15:17:16;3.70;;;0.70;;
13897;SDS011;7019;50.766;4.474;2022-08-01T15:19:46;2.72;;;0.80;;
13897;SDS011;7019;50.766;4.474;2022-08-01T15:22:14;2.30;;;0.80;;